createdAt,value
2022-11-16T00:00:24.433Z,100456.31
2022-11-16T00:02:53.060Z,100447.81
2022-11-16T00:05:26.994Z,100440.81
2022-11-16T00:07:56.907Z,100446.66
2022-11-16T00:10:25.342Z,100437.03
2022-11-16T00:12:53.699Z,100432.69
2022-11-16T00:15:22.230Z,100435.13
2022-11-16T00:17:51.917Z,100434.19
2022-11-16T00:20:20.244Z,100441.94
2022-11-16T00:22:48.540Z,100440.13
2022-11-16T00:25:17.037Z,100438.44
2022-11-16T00:27:45.761Z,100434.88
2022-11-16T00:30:14.747Z,100438.19
2022-11-16T00:32:43.085Z,100431.94
2022-11-16T00:35:12.918Z,100430.03
2022-11-16T00:37:41.220Z,100436.69
2022-11-16T00:40:10.795Z,100433.31
2022-11-16T00:42:39.136Z,100438.59
2022-11-16T00:45:08.438Z,100424.88
2022-11-16T00:47:36.824Z,100437.56
2022-11-16T00:50:05.940Z,100427.97
2022-11-16T00:52:35.658Z,100424.38
2022-11-16T00:55:04.004Z,100428.56
2022-11-16T00:57:32.323Z,100422.53
2022-11-16T01:00:00.655Z,100423.47
2022-11-16T01:02:29.302Z,100423.47
2022-11-16T01:04:57.681Z,100424.31
2022-11-16T01:07:26.106Z,100425.13
2022-11-16T01:09:55.804Z,100422.47
2022-11-16T01:12:23.192Z,100423.97
2022-11-16T01:14:51.539Z,100429.94
2022-11-16T01:17:19.909Z,100430.00
2022-11-16T01:19:48.195Z,100434.28
2022-11-16T01:22:16.528Z,100434.28
2022-11-16T01:24:46.666Z,100429.13
2022-11-16T01:27:16.399Z,100428.44
2022-11-16T01:29:45.298Z,100430.13
2022-11-16T01:32:13.656Z,100431.81
2022-11-16T01:34:42.020Z,100439.56
2022-11-16T01:37:10.318Z,100433.38
2022-11-16T01:39:38.921Z,100434.28
2022-11-16T01:42:07.413Z,100435.28
2022-11-16T01:45:06.115Z,100429.25
2022-11-16T01:47:34.872Z,100421.56
2022-11-16T01:50:09.877Z,100407.94
2022-11-16T01:52:45.312Z,100403.72
2022-11-16T01:55:14.101Z,100404.59
2022-11-16T01:57:44.762Z,100407.25
2022-11-16T02:00:16.196Z,100405.50
2022-11-16T02:02:45.472Z,100400.25
2022-11-16T02:05:18.319Z,100401.84
2022-11-16T02:08:18.486Z,100393.94
2022-11-16T02:11:04.149Z,100393.03
2022-11-16T02:13:43.384Z,100382.44
2022-11-16T02:16:24.113Z,100381.47
2022-11-16T02:19:00.108Z,100377.78
2022-11-16T02:21:38.042Z,100377.50
2022-11-16T02:24:41.310Z,100379.31
2022-11-16T02:27:40.860Z,100374.25
2022-11-16T02:30:10.841Z,100372.56
2022-11-16T02:32:43.400Z,100368.34
2022-11-16T02:35:15.918Z,100358.50
2022-11-16T02:37:49.593Z,100360.34
2022-11-16T02:40:20.532Z,100352.47
2022-11-16T02:42:54.736Z,100359.34
2022-11-16T02:45:28.219Z,100347.31
2022-11-16T02:48:02.286Z,100343.19
2022-11-16T02:50:33.453Z,100336.25
2022-11-16T02:53:01.773Z,100336.31
2022-11-16T02:55:33.642Z,100341.63
2022-11-16T02:58:03.617Z,100338.88
2022-11-16T03:00:43.420Z,100334.56
2022-11-16T03:03:22.004Z,100330.47
2022-11-16T03:05:54.435Z,100340.78
2022-11-16T03:08:28.418Z,100347.31
2022-11-16T03:11:16.960Z,100346.50
2022-11-16T03:13:47.731Z,100338.88
2022-11-16T03:16:24.008Z,100338.88
2022-11-16T03:18:54.897Z,100344.88
2022-11-16T03:21:29.892Z,100344.03
2022-11-16T03:23:58.377Z,100345.81
2022-11-16T03:26:35.390Z,100347.59
2022-11-16T03:29:13.046Z,100345.53
2022-11-16T03:31:49.621Z,100338.63
2022-11-16T03:34:20.787Z,100330.06
2022-11-16T03:36:51.433Z,100333.63
2022-11-16T03:39:25.123Z,100332.88
2022-11-16T03:41:54.429Z,100330.41
2022-11-16T03:44:23.081Z,100331.31
2022-11-16T03:46:52.838Z,100322.75
2022-11-16T03:49:23.132Z,100331.41
2022-11-16T03:51:51.777Z,100327.22
2022-11-16T03:54:20.397Z,100335.72
2022-11-16T03:56:49.201Z,100338.22
2022-11-16T03:59:17.504Z,100340.03
2022-11-16T04:01:45.847Z,100329.78
2022-11-16T04:04:29.696Z,100329.84
2022-11-16T04:07:15.309Z,100318.72
2022-11-16T04:10:01.035Z,100310.03
2022-11-16T04:12:46.749Z,100305.84
2022-11-16T04:15:32.387Z,100295.56
2022-11-16T04:18:18.060Z,100303.56
2022-11-16T04:21:05.541Z,100305.31
2022-11-16T04:23:51.318Z,100302.06
2022-11-16T04:26:39.800Z,100300.41
2022-11-16T04:29:07.201Z,100308.28
2022-11-16T04:31:49.491Z,100301.41
2022-11-16T04:34:35.358Z,100303.94
2022-11-16T04:37:22.313Z,100302.31
2022-11-16T04:39:50.661Z,100304.16
2022-11-16T04:42:22.292Z,100299.84
2022-11-16T04:45:13.978Z,100288.00
2022-11-16T04:47:42.353Z,100290.72
2022-11-16T04:50:11.186Z,100285.56
2022-11-16T04:52:40.911Z,100286.38
2022-11-16T04:55:10.933Z,100292.34
2022-11-16T04:57:39.515Z,100284.56
2022-11-16T05:00:09.317Z,100288.97
2022-11-16T05:02:37.662Z,100289.81
2022-11-16T05:05:06.745Z,100286.47
2022-11-16T05:07:35.161Z,100278.00
2022-11-16T05:10:07.037Z,100282.38
2022-11-16T05:12:35.834Z,100280.63
2022-11-16T05:15:04.920Z,100284.16
2022-11-16T05:17:33.689Z,100282.59
2022-11-16T05:20:19.630Z,100281.88
2022-11-16T05:22:53.722Z,100276.66
2022-11-16T05:25:23.443Z,100275.84
2022-11-16T05:27:51.920Z,100281.09
2022-11-16T05:30:20.549Z,100278.66
2022-11-16T05:32:48.865Z,100283.13
2022-11-16T05:35:17.392Z,100291.78
2022-11-16T05:37:45.708Z,100286.63
2022-11-16T05:40:14.178Z,100287.63
2022-11-16T05:42:44.004Z,100292.91
2022-11-16T05:45:14.922Z,100287.75
2022-11-16T05:47:46.589Z,100299.91
2022-11-16T05:50:14.784Z,100303.41
2022-11-16T05:52:43.110Z,100304.34
2022-11-16T05:55:11.424Z,100302.81
2022-11-16T05:57:39.738Z,100299.47
2022-11-16T06:00:11.105Z,100307.28
2022-11-16T06:02:39.494Z,100304.69
2022-11-16T06:05:08.356Z,100307.28
2022-11-16T06:07:36.849Z,100301.19
2022-11-16T06:10:05.901Z,100309.75
2022-11-16T06:12:34.357Z,100309.63
2022-11-16T06:15:02.673Z,100313.13
2022-11-16T06:17:33.838Z,100317.53
2022-11-16T06:20:02.182Z,100313.41
2022-11-16T06:22:30.653Z,100315.16
2022-11-16T06:24:58.983Z,100314.25
2022-11-16T06:27:27.300Z,100321.09
2022-11-16T06:29:55.596Z,100321.94
2022-11-16T06:32:23.913Z,100322.06
2022-11-16T06:34:54.604Z,100321.31
2022-11-16T06:37:22.928Z,100314.56
2022-11-16T06:39:51.297Z,100314.50
2022-11-16T06:42:19.700Z,100320.66
2022-11-16T06:44:48.096Z,100319.84
2022-11-16T06:47:16.525Z,100320.66
2022-11-16T06:49:45.492Z,100325.94
2022-11-16T06:52:15.152Z,100329.44
2022-11-16T06:54:43.478Z,100325.94
2022-11-16T06:57:11.841Z,100321.69
2022-11-16T06:59:40.152Z,100324.13
2022-11-16T07:02:08.606Z,100326.84
2022-11-16T07:04:37.116Z,100334.53
2022-11-16T07:07:05.567Z,100329.34
2022-11-16T07:09:35.345Z,100329.34
2022-11-16T07:12:03.704Z,100332.88
2022-11-16T07:14:32.039Z,100327.69
2022-11-16T07:17:03.979Z,100332.88
2022-11-16T07:19:36.745Z,100333.00
2022-11-16T07:22:05.393Z,100335.50
2022-11-16T07:24:35.081Z,100337.25
2022-11-16T07:27:03.423Z,100333.00
2022-11-16T07:29:31.721Z,100329.59
2022-11-16T07:32:00.036Z,100335.69
2022-11-16T07:35:23.385Z,100331.34
2022-11-16T07:38:47.095Z,100332.22
2022-11-16T07:41:19.509Z,100330.50
2022-11-16T07:43:52.760Z,100336.56
2022-11-16T07:46:46.470Z,100338.25
2022-11-16T07:49:14.584Z,100334.88
2022-11-16T07:51:43.204Z,100337.25
2022-11-16T07:54:12.951Z,100341.66
2022-11-16T07:56:42.886Z,100333.84
2022-11-16T07:59:11.257Z,100340.03
2022-11-16T08:01:39.879Z,100346.97
2022-11-16T08:04:08.262Z,100345.00
2022-11-16T08:06:36.580Z,100350.19
2022-11-16T08:09:05.116Z,100350.94
2022-11-16T08:11:33.492Z,100337.94
2022-11-16T08:14:03.229Z,100353.44
2022-11-16T08:16:33.212Z,100340.44
2022-11-16T08:19:02.292Z,100344.03
2022-11-16T08:21:30.654Z,100345.84
2022-11-16T08:23:59.196Z,100345.91
2022-11-16T08:26:28.213Z,100338.03
2022-11-16T08:28:57.111Z,100338.25
2022-11-16T08:31:29.249Z,100339.09
2022-11-16T08:33:57.708Z,100339.22
2022-11-16T08:36:26.123Z,100334.13
2022-11-16T08:38:54.725Z,100320.31
2022-11-16T08:41:23.401Z,100322.94
2022-11-16T08:43:53.423Z,100319.59
2022-11-16T08:46:22.708Z,100320.47
2022-11-16T08:48:56.120Z,100314.44
2022-11-16T08:51:25.600Z,100317.84
2022-11-16T08:53:56.971Z,100320.44
2022-11-16T08:56:27.137Z,100314.44
2022-11-16T08:58:59.016Z,100309.28
2022-11-16T09:01:29.777Z,100310.97
2022-11-16T09:04:00.291Z,100305.84
2022-11-16T09:06:28.774Z,100302.44
2022-11-16T09:08:57.676Z,100301.59
2022-11-16T09:11:27.218Z,100297.44
2022-11-16T09:13:56.393Z,100292.25
2022-11-16T09:16:26.562Z,100297.53
2022-11-16T09:18:55.592Z,100302.81
2022-11-16T09:21:27.022Z,100284.78
2022-11-16T09:23:57.039Z,100296.00
2022-11-16T09:26:26.269Z,100286.56
2022-11-16T09:28:57.948Z,100301.16
2022-11-16T09:31:27.925Z,100285.66
2022-11-16T09:33:58.413Z,100281.38
2022-11-16T09:36:29.510Z,100278.78
2022-11-16T09:42:09.959Z,100269.31
2022-11-16T09:44:50.749Z,100271.91
2022-11-16T09:47:22.503Z,100273.56
2022-11-16T09:49:57.004Z,100275.22
2022-11-16T09:52:35.407Z,100273.44
2022-11-16T09:55:20.397Z,100281.25
2022-11-16T09:57:50.910Z,100269.31
2022-11-16T10:00:23.593Z,100272.91
2022-11-16T10:03:02.986Z,100272.84
2022-11-16T10:05:38.218Z,100260.81
2022-11-16T10:08:16.194Z,100268.53
2022-11-16T10:10:53.709Z,100269.31
2022-11-16T10:13:35.197Z,100272.72
2022-11-16T10:16:11.263Z,100269.22
2022-11-16T10:18:54.955Z,100265.59
2022-11-16T10:21:42.629Z,100258.78
2022-11-16T10:24:26.431Z,100256.19
2022-11-16T10:27:07.697Z,100260.59
2022-11-16T10:29:49.615Z,100248.44
2022-11-16T10:32:26.003Z,100246.81
2022-11-16T10:34:56.214Z,100244.22
2022-11-16T10:37:31.457Z,100236.47
2022-11-16T10:40:13.146Z,100236.34
2022-11-16T10:42:41.469Z,100228.59
2022-11-16T10:45:20.562Z,100235.53
2022-11-16T10:47:53.368Z,100239.81
2022-11-16T10:50:36.130Z,100231.41
2022-11-16T10:53:04.754Z,100237.41
2022-11-16T10:55:34.573Z,100238.38
2022-11-16T10:58:04.588Z,100228.94
2022-11-16T11:00:39.027Z,100231.66
2022-11-16T11:03:07.778Z,100239.34
2022-11-16T11:05:37.398Z,100240.19
2022-11-16T11:08:07.336Z,100237.59
2022-11-16T11:10:39.557Z,100229.75
2022-11-16T11:13:23.526Z,100227.19
2022-11-16T11:15:51.956Z,100223.63
2022-11-16T11:18:27.671Z,100224.53
2022-11-16T11:21:08.055Z,100232.34
2022-11-16T11:23:43.581Z,100233.16
2022-11-16T11:26:34.709Z,100234.94
2022-11-16T11:29:17.998Z,100226.94
2022-11-16T11:31:49.942Z,100230.34
2022-11-16T11:34:22.066Z,100228.53
2022-11-16T11:36:53.868Z,100239.09
2022-11-16T11:39:33.611Z,100233.97
2022-11-16T11:42:06.829Z,100233.97
2022-11-16T11:44:49.166Z,100235.69
2022-11-16T11:50:25.825Z,100238.38
2022-11-16T11:53:08.451Z,100234.19
2022-11-16T11:55:36.800Z,100229.13
2022-11-16T11:58:08.531Z,100230.81
2022-11-16T12:00:50.070Z,100226.44
2022-11-16T12:03:52.362Z,100240.19
2022-11-16T12:06:28.969Z,100235.91
2022-11-16T12:09:28.560Z,100237.59
2022-11-16T12:12:14.828Z,100231.56
2022-11-16T12:15:00.139Z,100236.75
2022-11-16T12:17:38.670Z,100241.06
2022-11-16T12:20:21.825Z,100237.53
2022-11-16T12:23:16.616Z,100237.50
2022-11-16T12:25:54.266Z,100237.41
2022-11-16T12:28:35.005Z,100246.06
2022-11-16T12:31:28.340Z,100235.72
2022-11-16T12:34:05.336Z,100238.31
2022-11-16T12:36:41.656Z,100234.94
2022-11-16T12:39:23.570Z,100232.34
2022-11-16T12:42:21.435Z,100237.59
2022-11-16T12:45:06.305Z,100230.81
2022-11-16T12:47:50.819Z,100233.38
2022-11-16T12:50:38.377Z,100230.81
2022-11-16T12:53:21.481Z,100226.50
2022-11-16T12:56:01.951Z,100231.66
2022-11-16T12:58:47.760Z,100231.72
2022-11-16T13:01:23.716Z,100229.97
2022-11-16T13:03:57.423Z,100238.59
2022-11-16T13:06:31.553Z,100230.88
2022-11-16T13:09:04.658Z,100227.44
2022-11-16T13:11:37.515Z,100229.25
2022-11-16T13:14:09.041Z,100231.00
2022-11-16T13:16:37.513Z,100221.53
2022-11-16T13:19:11.254Z,100232.00
2022-11-16T13:21:48.745Z,100225.00
2022-11-16T13:24:28.216Z,100223.34
2022-11-16T13:27:10.151Z,100216.44
2022-11-16T13:29:44.326Z,100209.56
2022-11-16T13:32:18.870Z,100210.41
2022-11-16T13:34:49.881Z,100208.78
2022-11-16T13:37:46.775Z,100204.41
2022-11-16T13:40:25.316Z,100207.00
2022-11-16T13:43:03.830Z,100202.72
2022-11-16T13:45:37.000Z,100201.03
2022-11-16T13:48:16.506Z,100198.44
2022-11-16T13:50:52.208Z,100198.44
2022-11-16T13:56:24.160Z,100199.31
2022-11-16T13:58:58.486Z,100196.78
2022-11-16T14:01:27.818Z,100205.44
2022-11-16T14:04:36.952Z,100209.81
2022-11-16T14:07:28.220Z,100201.94
2022-11-16T14:09:56.909Z,100202.72
2022-11-16T14:12:58.415Z,100207.00
2022-11-16T14:15:34.837Z,100200.13
2022-11-16T14:18:38.059Z,100200.19
2022-11-16T14:21:21.832Z,100200.28
2022-11-16T14:24:10.501Z,100198.53
2022-11-16T14:26:47.280Z,100197.75
2022-11-16T14:29:32.396Z,100199.56
2022-11-16T14:32:03.949Z,100203.91
2022-11-16T14:34:40.915Z,100204.78
2022-11-16T14:37:14.026Z,100203.97
2022-11-16T14:39:44.905Z,100203.09
2022-11-16T14:42:18.930Z,100198.72
2022-11-16T14:44:48.581Z,100198.72
2022-11-16T14:47:25.065Z,100197.03
2022-11-16T14:49:53.975Z,100201.31
2022-11-16T14:52:29.949Z,100193.56
2022-11-16T14:55:02.724Z,100196.22
2022-11-16T14:57:31.025Z,100194.50
2022-11-16T15:00:12.045Z,100190.19
2022-11-16T15:02:41.167Z,100185.00
2022-11-16T15:05:16.832Z,100192.84
2022-11-16T15:07:46.368Z,100192.78
2022-11-16T15:10:19.702Z,100185.81
2022-11-16T15:12:51.590Z,100186.66
2022-11-16T15:15:24.038Z,100194.41
2022-11-16T15:18:07.034Z,100188.31
2022-11-16T15:20:37.561Z,100185.72
2022-11-16T15:23:14.212Z,100188.31
2022-11-16T15:25:46.238Z,100184.78
2022-11-16T15:28:17.577Z,100193.38
2022-11-16T15:30:49.068Z,100189.94
2022-11-16T15:33:19.990Z,100186.44
2022-11-16T15:35:48.338Z,100185.53
2022-11-16T15:38:20.172Z,100182.94
2022-11-16T15:40:51.811Z,100174.16
2022-11-16T15:43:22.456Z,100179.25
2022-11-16T15:45:51.484Z,100175.75
2022-11-16T15:48:23.231Z,100173.94
2022-11-16T15:51:04.272Z,100174.81
2022-11-16T15:53:38.826Z,100172.16
2022-11-16T15:56:13.197Z,100169.56
2022-11-16T15:58:42.127Z,100174.72
2022-11-16T16:01:11.930Z,100175.50
2022-11-16T16:03:45.996Z,100168.59
2022-11-16T16:06:16.720Z,100172.16
2022-11-16T16:08:45.137Z,100170.53
2022-11-16T16:11:29.448Z,100165.25
2022-11-16T16:14:00.022Z,100177.47
2022-11-16T16:16:32.413Z,100168.88
2022-11-16T16:19:09.336Z,100168.88
2022-11-16T16:21:43.962Z,100169.75
2022-11-16T16:24:41.170Z,100177.56
2022-11-16T16:27:19.174Z,100175.00
2022-11-16T16:29:48.826Z,100176.75
2022-11-16T16:32:24.553Z,100175.00
2022-11-16T16:34:53.442Z,100173.19
2022-11-16T16:37:22.395Z,100180.09
2022-11-16T16:39:50.685Z,100183.72
2022-11-16T16:42:20.538Z,100176.69
2022-11-16T16:44:49.287Z,100182.75
2022-11-16T16:47:20.731Z,100185.22
2022-11-16T16:49:49.270Z,100177.47
2022-11-16T16:52:18.057Z,100185.22
2022-11-16T16:54:46.964Z,100179.97
2022-11-16T16:57:16.204Z,100173.06
2022-11-16T16:59:48.267Z,100175.59
2022-11-16T17:02:17.546Z,100170.53
2022-11-16T17:04:46.837Z,100174.03
2022-11-16T17:07:15.681Z,100178.34
2022-11-16T17:09:44.307Z,100174.03
2022-11-16T17:12:12.771Z,100174.88
2022-11-16T17:14:41.058Z,100177.47
2022-11-16T17:17:10.755Z,100174.94
2022-11-16T17:19:39.130Z,100176.63
2022-11-16T17:22:07.564Z,100177.47
2022-11-16T17:24:36.028Z,100173.19
2022-11-16T17:27:04.477Z,100168.03
2022-11-16T17:29:32.965Z,100172.41
2022-11-16T17:32:01.564Z,100177.47
2022-11-16T17:34:31.751Z,100173.06
2022-11-16T17:37:00.131Z,100191.00
2022-11-16T17:39:28.491Z,100187.47
2022-11-16T17:41:56.837Z,100190.06
2022-11-16T17:44:26.589Z,100194.38
2022-11-16T17:46:54.986Z,100196.97
2022-11-16T17:49:23.322Z,100193.59
2022-11-16T17:51:53.021Z,100196.16
2022-11-16T17:54:21.393Z,100185.00
2022-11-16T17:56:49.868Z,100194.38
2022-11-16T17:59:18.219Z,100189.22
2022-11-16T18:01:46.615Z,100198.69
2022-11-16T18:04:15.345Z,100196.94
2022-11-16T18:06:43.686Z,100199.53
2022-11-16T18:09:13.441Z,100199.47
2022-11-16T18:11:41.833Z,100195.94
2022-11-16T18:14:10.668Z,100196.81
2022-11-16T18:16:41.082Z,100197.66
2022-11-16T18:19:09.970Z,100191.59
2022-11-16T18:21:40.791Z,100188.16
2022-11-16T18:24:10.303Z,100191.53
2022-11-16T18:26:41.632Z,100197.72
2022-11-16T18:29:12.230Z,100199.34
2022-11-16T18:31:41.099Z,100202.75
2022-11-16T18:34:09.548Z,100203.66
2022-11-16T18:36:37.873Z,100203.59
2022-11-16T18:39:06.814Z,100200.13
2022-11-16T18:41:35.409Z,100205.25
2022-11-16T18:44:06.321Z,100205.09
2022-11-16T18:46:34.674Z,100206.72
2022-11-16T18:49:03.088Z,100197.22
2022-11-16T18:51:31.968Z,100193.84
2022-11-16T18:54:00.250Z,100187.84
2022-11-16T18:56:28.629Z,100178.38
2022-11-16T18:58:56.969Z,100180.09
2022-11-16T19:01:27.745Z,100180.19
2022-11-16T19:03:57.391Z,100189.59
2022-11-16T19:06:25.759Z,100192.19
2022-11-16T19:08:59.384Z,100192.19
2022-11-16T19:11:29.344Z,100193.84
2022-11-16T19:14:01.094Z,100185.28
2022-11-16T19:16:31.525Z,100191.28
2022-11-16T19:19:01.461Z,100198.19
2022-11-16T19:21:30.445Z,100192.91
2022-11-16T19:23:58.929Z,100187.66
2022-11-16T19:26:28.647Z,100188.50
2022-11-16T19:28:56.979Z,100195.38
2022-11-16T19:31:27.417Z,100190.09
2022-11-16T19:33:58.034Z,100196.19
2022-11-16T19:36:27.544Z,100199.72
2022-11-16T19:38:56.192Z,100206.59
2022-11-16T19:41:25.544Z,100198.78
2022-11-16T19:43:57.254Z,100191.00
2022-11-16T19:46:27.046Z,100202.19
2022-11-16T19:48:57.570Z,100195.28
2022-11-16T19:51:28.108Z,100200.56
2022-11-16T19:53:57.428Z,100207.25
2022-11-16T19:56:28.065Z,100210.56
2022-11-16T19:58:56.690Z,100207.06
2022-11-16T20:01:27.985Z,100214.94
2022-11-16T20:03:59.281Z,100219.13
2022-11-16T20:06:29.398Z,100216.53
2022-11-16T20:09:00.551Z,100208.81
2022-11-16T20:11:31.130Z,100218.31
2022-11-16T20:13:59.702Z,100215.72
2022-11-16T20:16:37.030Z,100222.63
2022-11-16T20:19:09.923Z,100221.81
2022-11-16T20:21:40.196Z,100213.97
2022-11-16T20:24:12.207Z,100210.50
2022-11-16T20:26:43.199Z,100213.97
2022-11-16T20:29:12.505Z,100217.25
2022-11-16T20:31:42.791Z,100225.00
2022-11-16T20:34:14.857Z,100218.16
2022-11-16T20:36:44.697Z,100222.34
2022-11-16T20:39:17.497Z,100219.72
2022-11-16T20:41:47.681Z,100234.16
2022-11-16T20:44:21.076Z,100234.97
2022-11-16T20:46:50.587Z,100231.41
2022-11-16T20:49:20.784Z,100236.50
2022-11-16T20:51:50.453Z,100226.13
2022-11-16T20:54:18.979Z,100232.78
2022-11-16T20:56:51.532Z,100228.38
2022-11-16T20:59:20.257Z,100230.84
2022-11-16T21:01:49.019Z,100229.16
2022-11-16T21:04:17.755Z,100219.75
2022-11-16T21:06:47.868Z,100211.06
2022-11-16T21:09:22.441Z,100223.16
2022-11-16T21:12:08.538Z,100229.84
2022-11-16T21:14:37.214Z,100227.19
2022-11-16T21:17:05.654Z,100237.53
2022-11-16T21:19:34.109Z,100226.22
2022-11-16T21:22:03.825Z,100233.25
2022-11-16T21:24:32.202Z,100226.44
2022-11-16T21:27:00.599Z,100228.09
2022-11-16T21:29:28.988Z,100230.47
2022-11-16T21:31:57.384Z,100238.22
2022-11-16T21:34:27.795Z,100233.03
2022-11-16T21:36:56.128Z,100232.91
2022-11-16T21:39:25.816Z,100224.25
2022-11-16T21:41:54.142Z,100233.66
2022-11-16T21:44:22.486Z,100228.34
2022-11-16T21:46:50.766Z,100232.66
2022-11-16T21:49:19.086Z,100232.66
2022-11-16T21:51:47.377Z,100235.13
2022-11-16T21:54:15.692Z,100235.88
2022-11-16T21:56:45.358Z,100234.19
2022-11-16T21:59:13.671Z,100231.63
2022-11-16T22:01:55.877Z,100227.28
2022-11-16T22:04:38.486Z,100228.09
2022-11-16T22:07:24.076Z,100220.38
2022-11-16T22:09:52.397Z,100222.81
2022-11-16T22:12:22.102Z,100222.69
2022-11-16T22:14:50.514Z,100232.06
2022-11-16T22:17:19.068Z,100225.16
2022-11-16T22:19:47.510Z,100232.19
2022-11-16T22:22:15.825Z,100232.19
2022-11-16T22:24:44.176Z,100230.41
2022-11-16T22:27:12.532Z,100225.09
2022-11-16T22:29:42.349Z,100230.09
2022-11-16T22:32:11.100Z,100230.63
2022-11-16T22:34:39.432Z,100238.38
2022-11-16T22:37:07.756Z,100237.38
2022-11-16T22:39:36.652Z,100230.41
2022-11-16T22:42:05.698Z,100231.22
2022-11-16T22:44:34.101Z,100238.13
2022-11-16T22:47:03.870Z,100237.22
2022-11-16T22:49:32.206Z,100231.09
2022-11-16T22:52:00.517Z,100222.41
2022-11-16T22:54:30.153Z,100215.50
2022-11-16T22:56:58.437Z,100216.34
2022-11-16T22:59:26.742Z,100212.00
2022-11-16T23:01:55.055Z,100208.59
2022-11-16T23:04:25.253Z,100217.16
2022-11-16T23:06:53.599Z,100216.28
2022-11-16T23:09:21.903Z,100218.69
2022-11-16T23:12:07.138Z,100214.31
2022-11-16T23:14:53.131Z,100213.44
2022-11-16T23:17:21.568Z,100213.38
2022-11-16T23:20:13.334Z,100209.66
2022-11-16T23:23:02.325Z,100212.75
2022-11-16T23:25:47.885Z,100205.59
2022-11-16T23:28:18.292Z,100201.94
2022-11-16T23:30:46.679Z,100200.22
2022-11-16T23:33:15.285Z,100200.97
2022-11-16T23:35:44.995Z,100191.31
2022-11-16T23:38:13.341Z,100190.25
2022-11-16T23:40:41.640Z,100204.72
2022-11-16T23:43:28.429Z,100194.25
2022-11-16T23:45:56.771Z,100197.91
2022-11-16T23:48:25.156Z,100196.28
2022-11-16T23:50:54.789Z,100189.34
2022-11-16T23:53:23.070Z,100186.66
2022-11-16T23:55:51.471Z,100178.88
2022-11-16T23:58:19.783Z,100182.44
